createdAt,value
2019-06-20T00:00:48.256Z,21.97
2019-06-20T00:03:17.833Z,21.85
2019-06-20T00:05:54.660Z,22.32
2019-06-20T00:08:24.179Z,23.75
2019-06-20T00:11:00.840Z,22.37
2019-06-20T00:13:30.468Z,21.45
2019-06-20T00:16:06.997Z,23.18
2019-06-20T00:18:36.514Z,23.73
2019-06-20T00:21:12.342Z,25.82
2019-06-20T00:23:41.781Z,25.45
2019-06-20T00:26:11.254Z,25.40
2019-06-20T00:28:47.262Z,24.72
2019-06-20T00:31:22.889Z,23.25
2019-06-20T00:33:58.564Z,24.82
2019-06-20T00:36:35.109Z,25.17
2019-06-20T00:39:06.996Z,24.30
2019-06-20T00:41:44.009Z,27.22
2019-06-20T00:44:13.459Z,33.28
2019-06-20T00:46:49.504Z,24.63
2019-06-20T00:49:32.118Z,25.90
2019-06-20T00:52:07.758Z,24.50
2019-06-20T00:54:37.274Z,23.92
2019-06-20T00:57:13.259Z,26.12
2019-06-20T00:59:42.788Z,24.70
2019-06-20T01:02:24.965Z,24.98
2019-06-20T01:04:54.420Z,24.87
2019-06-20T01:07:30.297Z,26.57
2019-06-20T01:09:59.756Z,27.75
2019-06-20T01:12:35.886Z,27.55
2019-06-20T01:15:17.492Z,27.15
2019-06-20T01:17:47.044Z,25.70
2019-06-20T01:20:23.779Z,26.35
2019-06-20T01:22:53.214Z,25.37
2019-06-20T01:25:48.396Z,26.80
2019-06-20T01:28:24.526Z,26.37
2019-06-20T01:31:00.430Z,25.95
2019-06-20T01:33:30.077Z,26.25
2019-06-20T01:35:59.528Z,25.62
2019-06-20T01:38:35.822Z,25.25
2019-06-20T01:41:06.357Z,24.32
2019-06-20T01:43:50.607Z,25.20
2019-06-20T01:46:20.831Z,25.20
2019-06-20T01:48:57.279Z,26.57
2019-06-20T01:51:40.043Z,25.45
2019-06-20T01:54:09.565Z,24.70
2019-06-20T01:56:45.590Z,25.90
2019-06-20T01:59:15.035Z,27.58
2019-06-20T02:01:51.519Z,29.70
2019-06-20T02:04:21.023Z,26.52
2019-06-20T02:06:57.678Z,28.17
2019-06-20T02:09:27.193Z,28.32
2019-06-20T02:12:02.886Z,27.75
2019-06-20T02:14:39.236Z,27.67
2019-06-20T02:17:08.829Z,27.42
2019-06-20T02:19:44.493Z,26.77
2019-06-20T02:22:14.011Z,27.22
2019-06-20T02:24:50.262Z,28.00
2019-06-20T02:27:21.161Z,28.95
2019-06-20T02:29:57.148Z,28.12
2019-06-20T02:32:26.593Z,28.15
2019-06-20T02:35:02.202Z,27.48
2019-06-20T02:37:43.871Z,29.52
2019-06-20T02:40:13.720Z,30.50
2019-06-20T02:42:43.237Z,30.77
2019-06-20T02:45:19.647Z,31.68
2019-06-20T02:47:49.101Z,28.50
2019-06-20T02:50:31.676Z,29.25
2019-06-20T02:53:08.032Z,29.07
2019-06-20T02:55:37.682Z,28.57
2019-06-20T02:58:14.024Z,27.48
2019-06-20T03:01:02.314Z,33.42
2019-06-20T03:03:31.983Z,27.80
2019-06-20T03:06:01.497Z,29.20
2019-06-20T03:08:37.728Z,28.52
2019-06-20T03:11:07.175Z,29.18
2019-06-20T03:13:43.155Z,28.35
2019-06-20T03:16:19.023Z,28.42
2019-06-20T03:18:48.469Z,29.07
2019-06-20T03:21:18.066Z,28.47
2019-06-20T03:23:54.034Z,26.65
2019-06-20T03:26:23.495Z,28.55
2019-06-20T03:29:00.260Z,26.95
2019-06-20T03:31:36.630Z,26.02
2019-06-20T03:34:19.213Z,25.65
2019-06-20T03:36:55.724Z,24.17
2019-06-20T03:39:25.154Z,23.92
2019-06-20T03:42:01.689Z,25.68
2019-06-20T03:44:31.203Z,25.10
2019-06-20T03:47:07.255Z,26.10
2019-06-20T03:49:50.027Z,26.07
2019-06-20T03:52:33.434Z,25.10
2019-06-20T03:55:03.142Z,23.90
2019-06-20T03:57:39.685Z,24.57
2019-06-20T04:00:10.145Z,24.40
2019-06-20T04:02:39.608Z,23.73
2019-06-20T04:05:16.745Z,24.20
2019-06-20T04:07:52.401Z,23.25
2019-06-20T04:10:28.618Z,26.73
2019-06-20T04:12:58.137Z,26.23
2019-06-20T04:15:33.840Z,24.20
2019-06-20T04:18:03.293Z,25.43
2019-06-20T04:20:39.100Z,24.67
2019-06-20T04:23:08.547Z,24.10
2019-06-20T04:25:44.599Z,24.95
2019-06-20T04:28:14.128Z,25.50
2019-06-20T04:30:49.752Z,26.70
2019-06-20T04:33:19.217Z,26.50
2019-06-20T04:36:01.506Z,26.37
2019-06-20T04:38:31.056Z,26.40
2019-06-20T04:41:07.045Z,26.17
2019-06-20T04:43:36.869Z,25.62
2019-06-20T04:46:14.103Z,25.70
2019-06-20T04:48:43.559Z,24.55
2019-06-20T04:51:19.764Z,24.18
2019-06-20T04:53:55.671Z,23.22
2019-06-20T04:56:38.146Z,23.12
2019-06-20T04:59:07.628Z,22.05
2019-06-20T05:01:44.135Z,23.32
2019-06-20T05:04:13.671Z,22.17
2019-06-20T05:06:53.595Z,22.10
2019-06-20T05:09:23.065Z,21.55
2019-06-20T05:11:58.714Z,20.60
2019-06-20T05:14:35.224Z,21.73
2019-06-20T05:17:10.873Z,20.35
2019-06-20T05:19:41.804Z,20.32
2019-06-20T05:22:17.631Z,19.77
2019-06-20T05:24:47.095Z,19.52
2019-06-20T05:27:23.161Z,19.23
2019-06-20T05:29:59.218Z,18.87
2019-06-20T05:32:28.690Z,19.12
2019-06-20T05:35:04.954Z,19.55
2019-06-20T05:37:34.380Z,19.35
2019-06-20T05:40:11.417Z,18.75
2019-06-20T05:42:40.955Z,17.92
2019-06-20T05:45:18.522Z,18.37
2019-06-20T05:47:48.051Z,18.35
2019-06-20T05:50:24.833Z,17.82
2019-06-20T05:53:07.619Z,17.15
2019-06-20T05:55:44.414Z,17.73
2019-06-20T05:58:13.967Z,18.42
2019-06-20T06:00:50.633Z,16.55
2019-06-20T06:03:26.889Z,16.97
2019-06-20T06:05:56.435Z,17.32
2019-06-20T06:08:32.705Z,17.05
2019-06-20T06:11:02.277Z,16.40
2019-06-20T06:13:38.289Z,16.02
2019-06-20T06:16:07.881Z,17.32
2019-06-20T06:18:44.025Z,17.23
2019-06-20T06:21:13.656Z,16.10
2019-06-20T06:23:43.172Z,16.12
2019-06-20T06:26:18.994Z,16.30
2019-06-20T06:28:55.022Z,15.30
2019-06-20T06:31:24.575Z,15.80
2019-06-20T06:33:54.019Z,14.95
2019-06-20T06:36:30.292Z,14.65
2019-06-20T06:39:09.485Z,14.60
2019-06-20T06:41:46.192Z,15.63
2019-06-20T06:44:22.220Z,13.53
2019-06-20T06:46:57.523Z,13.62
2019-06-20T06:49:30.016Z,12.43
2019-06-20T06:51:59.672Z,12.33
2019-06-20T06:54:41.999Z,11.95
2019-06-20T06:57:17.494Z,12.03
2019-06-20T06:59:53.318Z,12.30
2019-06-20T07:02:22.980Z,12.55
2019-06-20T07:04:59.374Z,13.38
2019-06-20T07:07:35.271Z,13.25
2019-06-20T07:10:07.352Z,11.70
2019-06-20T07:12:43.051Z,11.73
2019-06-20T07:15:14.398Z,12.15
2019-06-20T07:17:50.877Z,12.53
2019-06-20T07:20:27.014Z,12.75
2019-06-20T07:22:56.554Z,12.60
2019-06-20T07:25:32.184Z,12.00
2019-06-20T07:28:01.669Z,13.30
2019-06-20T07:30:38.095Z,12.55
2019-06-20T07:33:14.578Z,12.30
2019-06-20T07:35:45.377Z,12.37
2019-06-20T07:38:21.296Z,12.60
2019-06-20T07:40:56.971Z,13.22
2019-06-20T07:43:26.490Z,12.07
2019-06-20T07:46:03.377Z,13.00
2019-06-20T07:48:39.024Z,12.28
2019-06-20T07:51:08.549Z,11.93
2019-06-20T07:53:44.434Z,11.93
2019-06-20T07:56:27.601Z,12.13
2019-06-20T07:59:03.316Z,11.60
2019-06-20T08:01:32.932Z,13.60
2019-06-20T08:04:09.413Z,11.78
2019-06-20T08:06:38.949Z,11.90
2019-06-20T08:09:16.394Z,12.05
2019-06-20T08:11:46.053Z,12.45
2019-06-20T08:14:22.042Z,12.75
2019-06-20T08:16:51.558Z,12.75
2019-06-20T08:19:28.096Z,12.25
2019-06-20T08:21:57.545Z,12.43
2019-06-20T08:24:34.256Z,12.25
2019-06-20T08:27:04.914Z,13.62
2019-06-20T08:29:41.027Z,12.73
2019-06-20T08:32:10.626Z,13.03
2019-06-20T08:34:46.754Z,13.08
2019-06-20T08:37:16.358Z,12.73
2019-06-20T08:39:52.435Z,12.45
2019-06-20T08:42:21.988Z,12.45
2019-06-20T08:45:03.973Z,12.68
2019-06-20T08:47:33.753Z,13.68
2019-06-20T08:50:10.880Z,11.95
2019-06-20T08:52:46.818Z,11.68
2019-06-20T08:55:25.208Z,12.50
2019-06-20T08:58:07.690Z,12.37
2019-06-20T09:00:38.358Z,12.60
2019-06-20T09:03:16.936Z,11.88
2019-06-20T09:05:46.617Z,11.73
2019-06-20T09:08:22.711Z,11.40
2019-06-20T09:10:54.123Z,11.38
2019-06-20T09:13:30.572Z,10.98
2019-06-20T09:16:00.915Z,11.30
2019-06-20T09:18:37.324Z,12.58
2019-06-20T09:21:07.395Z,11.22
2019-06-20T09:23:43.193Z,12.10
2019-06-20T09:26:19.186Z,11.33
2019-06-20T09:28:55.696Z,11.63
2019-06-20T09:31:25.225Z,11.03
2019-06-20T09:34:04.903Z,11.15
2019-06-20T09:36:32.290Z,10.82
2019-06-20T09:39:08.972Z,10.82
2019-06-20T09:41:45.471Z,11.60
2019-06-20T09:44:14.949Z,11.33
2019-06-20T09:46:52.333Z,10.50
2019-06-20T09:49:29.281Z,11.50
2019-06-20T09:52:12.641Z,12.10
2019-06-20T09:54:44.819Z,11.53
2019-06-20T09:57:27.377Z,11.63
2019-06-20T10:00:09.948Z,11.45
2019-06-20T10:03:01.514Z,11.10
2019-06-20T10:05:38.167Z,11.18
2019-06-20T10:08:14.063Z,11.10
2019-06-20T10:10:43.677Z,10.88
2019-06-20T10:13:13.133Z,12.07
2019-06-20T10:15:49.460Z,11.33
2019-06-20T10:18:19.107Z,11.50
2019-06-20T10:20:48.890Z,11.45
2019-06-20T10:23:24.656Z,12.20
2019-06-20T10:26:00.445Z,13.25
2019-06-20T10:28:29.974Z,11.15
2019-06-20T10:30:59.569Z,11.08
2019-06-20T10:33:35.948Z,11.57
2019-06-20T10:36:06.016Z,11.18
2019-06-20T10:38:42.212Z,11.03
2019-06-20T10:41:11.862Z,11.40
2019-06-20T10:43:47.614Z,11.15
2019-06-20T10:46:24.347Z,11.15
2019-06-20T10:48:54.793Z,11.20
2019-06-20T10:51:45.966Z,10.93
2019-06-20T10:54:22.618Z,10.95
2019-06-20T10:56:58.456Z,10.30
2019-06-20T10:59:42.670Z,10.32
2019-06-20T11:02:12.274Z,10.08
2019-06-20T11:04:49.801Z,9.73
2019-06-20T11:07:19.514Z,19.62
2019-06-20T11:09:56.321Z,10.88
2019-06-20T11:12:42.850Z,10.05
2019-06-20T11:15:05.355Z,9.88
2019-06-20T11:17:41.957Z,10.78
2019-06-20T11:20:12.681Z,9.25
2019-06-20T11:22:48.741Z,9.35
2019-06-20T11:25:25.194Z,9.68
2019-06-20T11:27:54.796Z,9.03
2019-06-20T11:30:53.307Z,10.50
2019-06-20T11:33:23.137Z,10.05
2019-06-20T11:35:52.854Z,8.10
2019-06-20T11:38:33.337Z,4.80
2019-06-20T11:41:03.984Z,7.15
2019-06-20T11:43:40.129Z,8.83
2019-06-20T11:46:28.159Z,10.60
2019-06-20T11:49:10.301Z,10.70
2019-06-20T11:51:46.149Z,11.00
2019-06-20T11:54:21.996Z,8.00
2019-06-20T11:56:58.118Z,4.87
2019-06-20T11:59:40.545Z,5.20
2019-06-20T12:02:23.890Z,5.83
2019-06-20T12:04:53.476Z,4.37
2019-06-20T12:07:29.645Z,3.77
2019-06-20T12:09:59.667Z,3.90
2019-06-20T12:12:29.187Z,6.65
2019-06-20T12:15:07.121Z,5.47
2019-06-20T12:17:39.338Z,6.37
2019-06-20T12:20:16.714Z,7.07
2019-06-20T12:22:52.550Z,5.58
2019-06-20T12:25:30.048Z,4.33
2019-06-20T12:28:06.562Z,4.45
2019-06-20T12:30:36.101Z,3.95
2019-06-20T12:33:12.571Z,3.50
2019-06-20T12:35:49.108Z,3.45
2019-06-20T12:38:18.640Z,4.60
2019-06-20T12:40:54.967Z,5.12
2019-06-20T12:43:24.576Z,6.20
2019-06-20T12:46:00.687Z,6.72
2019-06-20T12:48:30.347Z,7.17
2019-06-20T12:51:00.059Z,6.87
2019-06-20T12:53:37.780Z,7.85
2019-06-20T12:56:14.678Z,7.25
2019-06-20T12:58:50.997Z,6.37
2019-06-20T13:01:36.890Z,5.50
2019-06-20T13:04:04.030Z,6.42
2019-06-20T13:06:33.617Z,7.33
2019-06-20T13:09:10.618Z,6.40
2019-06-20T13:11:47.398Z,6.12
2019-06-20T13:14:16.920Z,6.90
2019-06-20T13:16:52.571Z,5.22
2019-06-20T13:19:22.036Z,5.60
2019-06-20T13:21:58.225Z,5.17
2019-06-20T13:24:27.758Z,5.50
2019-06-20T13:27:03.507Z,5.80
2019-06-20T13:29:41.078Z,6.22
2019-06-20T16:15:52.432Z,6.15
2019-06-20T16:18:38.023Z,6.40
2019-06-20T16:21:12.154Z,6.72
2019-06-20T16:24:01.360Z,6.47
2019-06-20T16:26:43.765Z,6.85
2019-06-20T16:29:16.331Z,6.95
2019-06-20T16:31:55.689Z,7.33
2019-06-20T16:34:25.181Z,6.92
2019-06-20T16:37:09.988Z,7.12
2019-06-20T16:39:39.334Z,6.97
2019-06-20T16:42:16.225Z,6.40
2019-06-20T16:44:45.834Z,6.80
2019-06-20T16:47:21.522Z,6.62
2019-06-20T16:49:51.143Z,6.50
2019-06-20T16:52:26.900Z,6.37
2019-06-20T16:55:02.954Z,6.95
2019-06-20T16:57:39.039Z,6.08
2019-06-20T17:00:16.823Z,6.83
2019-06-20T17:03:06.963Z,6.58
2019-06-20T17:05:43.096Z,6.47
2019-06-20T17:08:12.707Z,6.78
2019-06-20T17:10:48.565Z,6.30
2019-06-20T17:13:18.165Z,6.10
2019-06-20T17:15:47.833Z,6.25
2019-06-20T17:18:26.043Z,6.70
2019-06-20T17:20:55.663Z,7.17
2019-06-20T17:23:25.333Z,8.23
2019-06-20T17:26:01.833Z,7.47
2019-06-20T17:28:31.439Z,12.35
2019-06-20T17:31:07.344Z,8.75
2019-06-20T17:33:36.823Z,12.15
2019-06-20T17:36:18.239Z,7.62
2019-06-20T17:38:43.970Z,8.20
2019-06-20T17:41:15.988Z,7.45
2019-06-20T17:43:51.827Z,7.85
2019-06-20T17:46:21.446Z,7.90
2019-06-20T17:48:58.193Z,7.00
2019-06-20T17:51:34.448Z,7.97
2019-06-20T17:54:07.311Z,8.08
2019-06-20T17:56:50.108Z,8.08
2019-06-20T17:59:22.669Z,9.48
2019-06-20T18:01:57.691Z,9.90
2019-06-20T18:04:27.142Z,8.83
2019-06-20T18:07:04.038Z,8.50
2019-06-20T18:09:41.850Z,9.20
2019-06-20T18:12:17.860Z,10.45
2019-06-20T18:14:47.400Z,9.55
2019-06-20T18:17:23.815Z,8.70
2019-06-20T18:19:59.681Z,8.95
2019-06-20T18:22:36.066Z,8.13
2019-06-20T18:25:08.470Z,8.45
2019-06-20T18:27:38.156Z,8.63
2019-06-20T18:30:16.295Z,9.33
2019-06-20T18:32:45.834Z,8.03
2019-06-20T18:35:22.379Z,8.18
2019-06-20T18:37:51.984Z,7.62
2019-06-20T18:40:28.032Z,8.05
2019-06-20T18:42:57.643Z,7.75
2019-06-20T18:45:33.679Z,11.05
2019-06-20T18:48:09.687Z,9.70
2019-06-20T18:50:39.364Z,9.60
2019-06-20T18:53:15.110Z,9.63
2019-06-20T18:55:44.779Z,10.45
2019-06-20T18:58:27.742Z,9.70
2019-06-20T19:00:57.346Z,11.53
2019-06-20T19:03:33.583Z,10.05
2019-06-20T19:06:09.452Z,10.35
2019-06-20T19:08:39.073Z,10.08
2019-06-20T19:11:15.917Z,10.28
2019-06-20T19:13:45.477Z,10.05
2019-06-20T19:16:17.268Z,9.93
2019-06-20T19:18:53.886Z,10.48
2019-06-20T19:21:36.737Z,9.63
2019-06-20T19:24:06.582Z,10.80
2019-06-20T19:26:43.201Z,11.60
2019-06-20T19:29:12.734Z,10.90
2019-06-20T19:31:48.890Z,13.38
2019-06-20T19:34:25.281Z,12.07
2019-06-20T19:36:54.972Z,12.93
2019-06-20T19:39:31.087Z,11.45
2019-06-20T19:42:07.689Z,11.43
2019-06-20T19:44:37.236Z,10.72
2019-06-20T19:47:13.789Z,10.78
2019-06-20T19:49:50.278Z,11.15
2019-06-20T19:52:26.977Z,11.95
2019-06-20T19:54:59.111Z,11.70
2019-06-20T19:57:35.174Z,11.15
2019-06-20T20:00:19.899Z,10.58
2019-06-20T20:02:49.606Z,10.58
2019-06-20T20:05:20.090Z,10.68
2019-06-20T20:08:03.428Z,10.53
2019-06-20T20:10:46.446Z,11.18
2019-06-20T20:13:23.437Z,10.50
2019-06-20T20:16:00.103Z,12.18
2019-06-20T20:18:29.724Z,12.58
2019-06-20T20:21:12.374Z,11.48
2019-06-20T20:23:54.670Z,12.70
2019-06-20T20:26:24.201Z,12.93
2019-06-20T20:29:00.182Z,13.48
2019-06-20T20:31:30.121Z,12.70
2019-06-20T20:34:06.621Z,12.28
2019-06-20T20:36:36.314Z,15.30
2019-06-20T20:39:16.947Z,13.00
2019-06-20T20:41:45.652Z,13.68
2019-06-20T20:44:28.715Z,21.25
2019-06-20T20:46:58.258Z,11.88
2019-06-20T20:49:35.647Z,11.53
2019-06-20T20:52:05.330Z,11.90
2019-06-20T20:54:35.199Z,11.15
2019-06-20T20:57:11.577Z,11.75
2019-06-20T20:59:47.604Z,12.37
2019-06-20T21:02:24.043Z,11.97
2019-06-20T21:04:53.521Z,12.30
2019-06-20T21:07:29.637Z,12.78
2019-06-20T21:09:59.253Z,13.93
2019-06-20T21:12:35.749Z,13.55
2019-06-20T21:15:08.046Z,14.93
2019-06-20T21:17:43.740Z,15.70
2019-06-20T21:20:20.843Z,14.87
2019-06-20T21:23:03.493Z,17.00
2019-06-20T21:25:33.027Z,16.97
2019-06-20T21:28:09.147Z,16.23
2019-06-20T21:30:38.765Z,17.05
2019-06-20T21:33:08.238Z,17.73
2019-06-20T21:35:46.848Z,16.97
2019-06-20T21:38:16.574Z,16.97
2019-06-20T21:40:52.420Z,17.52
2019-06-20T21:43:21.879Z,16.93
2019-06-20T21:45:57.451Z,16.87
2019-06-20T21:48:33.765Z,15.95
2019-06-20T21:51:10.141Z,16.17
2019-06-20T21:53:46.621Z,16.10
2019-06-20T21:56:16.151Z,15.63
2019-06-20T21:58:52.760Z,16.67
2019-06-20T22:01:22.770Z,16.73
2019-06-20T22:03:58.935Z,17.55
2019-06-20T22:06:28.556Z,16.80
2019-06-20T22:09:13.336Z,15.30
2019-06-20T22:11:49.675Z,15.65
2019-06-20T22:14:25.761Z,16.40
2019-06-20T22:16:55.371Z,16.97
2019-06-20T22:19:31.342Z,16.55
2019-06-20T22:22:14.017Z,15.70
2019-06-20T22:24:57.226Z,15.43
2019-06-20T22:27:33.768Z,16.67
2019-06-20T22:30:04.854Z,15.43
2019-06-20T22:32:40.644Z,17.10
2019-06-20T22:35:10.909Z,16.48
2019-06-20T22:37:47.693Z,16.45
2019-06-20T22:40:17.479Z,17.70
2019-06-20T22:42:53.572Z,18.98
2019-06-20T22:45:23.551Z,18.77
2019-06-20T22:47:53.093Z,17.77
2019-06-20T22:50:31.193Z,16.77
2019-06-20T22:53:00.727Z,16.37
2019-06-20T22:55:36.842Z,16.20
2019-06-20T22:58:07.122Z,16.10
2019-06-20T23:00:43.156Z,15.83
2019-06-20T23:03:12.712Z,15.15
2019-06-20T23:05:49.374Z,14.60
2019-06-20T23:08:19.016Z,14.58
2019-06-20T23:11:01.321Z,15.35
2019-06-20T23:13:30.853Z,15.72
2019-06-20T23:16:07.473Z,16.25
2019-06-20T23:18:36.957Z,16.17
2019-06-20T23:21:13.368Z,16.60
2019-06-20T23:23:49.627Z,16.27
2019-06-20T23:26:26.208Z,17.52
2019-06-20T23:29:13.318Z,18.00
2019-06-20T23:31:49.147Z,17.23
2019-06-20T23:34:18.678Z,17.48
2019-06-20T23:36:54.471Z,17.60
2019-06-20T23:39:24.008Z,16.93
2019-06-20T23:41:59.657Z,16.32
2019-06-20T23:44:29.118Z,17.95
2019-06-20T23:47:04.826Z,18.07
2019-06-20T23:49:34.353Z,17.10
2019-06-20T23:52:17.520Z,17.05
2019-06-20T23:54:47.068Z,17.02
2019-06-20T23:57:30.103Z,17.05
2019-06-20T23:59:59.631Z,16.90
